Time;durP1;ratioP1;P1;durP2;ratioP2;P2;SDS_P1;SDS_P2;PMS_P1;PMS_P2;Temp;Humidity;BMP_temperature;BMP_pressure;BME280_temperature;BME280_humidity;BME280_pressure;Samples;Min_cycle;Max_cycle;Signal;HPM_P1;HPM_P2
2022/04/13 00:01:00;;;;;;;4.43;2.58;;;10.50;92.10;;;;;;5052965;28;20025;-73
2022/04/13 00:03:26;;;;;;;3.53;2.60;;;10.60;92.20;;;;;;5053243;28;20491;-73
2022/04/13 00:05:51;;;;;;;6.57;2.80;;;10.60;91.80;;;;;;5053047;28;20099;-73
2022/04/13 00:08:17;;;;;;;4.40;2.70;;;10.60;91.30;;;;;;5045382;28;20383;-73
2022/04/13 00:10:43;;;;;;;4.25;2.75;;;10.50;92.70;;;;;;5052798;28;20025;-74
2022/04/13 00:13:09;;;;;;;4.68;2.70;;;10.40;92.30;;;;;;5050854;28;20039;-72
2022/04/13 00:15:34;;;;;;;4.10;2.63;;;10.40;92.30;;;;;;5051701;28;20029;-74
2022/04/13 00:18:05;;;;;;;3.38;2.75;;;10.50;91.90;;;;;;5051600;28;20493;-75
2022/04/13 00:20:31;;;;;;;4.25;2.78;;;10.50;92.00;;;;;;5052481;28;20013;-75
2022/04/13 00:22:56;;;;;;;3.60;3.13;;;10.60;91.60;;;;;;5052686;28;20172;-75
2022/04/13 00:25:22;;;;;;;4.65;3.08;;;10.70;91.40;;;;;;5052745;28;20028;-75
2022/04/13 00:27:47;;;;;;;4.95;3.00;;;10.60;91.40;;;;;;5052628;28;20096;-74
2022/04/13 00:30:13;;;;;;;3.58;2.90;;;10.50;92.30;;;;;;5052586;28;20029;-74
2022/04/13 00:32:38;;;;;;;5.78;2.63;;;10.50;92.20;;;;;;5052634;28;20104;-73
2022/04/13 00:35:04;;;;;;;4.25;2.78;;;10.50;91.80;;;;;;5052674;28;20091;-73
2022/04/13 00:37:31;;;;;;;5.60;3.03;;;10.50;92.20;;;;;;5051363;28;20033;-74
2022/04/13 00:39:56;;;;;;;4.70;2.80;;;10.30;92.60;;;;;;5052633;28;20036;-74
2022/04/13 00:42:22;;;;;;;6.25;2.90;;;10.20;93.70;;;;;;5052408;28;20021;-73
2022/04/13 00:44:47;;;;;;;4.78;2.83;;;10.20;93.00;;;;;;5052480;28;20107;-73
2022/04/13 00:47:13;;;;;;;3.65;2.80;;;10.00;93.90;;;;;;5050832;28;20482;-73
2022/04/13 00:49:40;;;;;;;5.88;2.88;;;10.00;94.50;;;;;;5051657;28;20108;-73
2022/04/13 00:52:06;;;;;;;5.68;2.90;;;10.00;94.20;;;;;;5051315;28;20043;-73
2022/04/13 00:54:33;;;;;;;5.03;2.70;;;10.00;94.70;;;;;;5052376;28;20033;-73
2022/04/13 00:57:00;;;;;;;5.72;3.08;;;10.00;95.20;;;;;;5050986;28;20036;-73
2022/04/13 00:59:26;;;;;;;4.60;3.03;;;10.00;94.40;;;;;;5050953;28;20375;-73
2022/04/13 01:01:57;;;;;;;3.85;2.65;;;9.80;96.10;;;;;;5051938;28;20043;-73
2022/04/13 01:04:25;;;;;;;5.90;3.00;;;9.80;96.00;;;;;;5052050;28;20025;-73
2022/04/13 01:06:52;;;;;;;4.90;2.80;;;9.60;96.60;;;;;;5050833;28;20056;-73
2022/04/13 01:09:19;;;;;;;3.72;2.92;;;9.60;96.90;;;;;;5052234;28;20036;-73
2022/04/13 01:11:44;;;;;;;3.00;2.70;;;9.60;96.30;;;;;;5051800;28;20021;-73
2022/04/13 01:14:10;;;;;;;5.30;3.00;;;9.70;96.60;;;;;;5052006;28;20144;-73
2022/04/13 01:16:39;;;;;;;4.97;3.22;;;9.60;96.30;;;;;;5050439;28;20064;-73
2022/04/13 01:19:06;;;;;;;3.72;2.85;;;9.50;97.20;;;;;;5051836;28;20021;-73
2022/04/13 01:21:47;;;;;;;4.07;2.90;;;9.50;96.80;;;;;;5051691;28;20471;-73
2022/04/13 01:24:14;;;;;;;4.68;3.10;;;9.40;97.40;;;;;;5051827;28;20051;-73
2022/04/13 01:26:39;;;;;;;5.53;2.88;;;9.50;97.20;;;;;;5051694;28;20422;-73
2022/04/13 01:29:06;;;;;;;3.83;2.90;;;9.40;97.40;;;;;;5051857;28;20197;-73
2022/04/13 01:31:32;;;;;;;4.53;2.78;;;9.30;97.60;;;;;;5051304;28;20062;-72
2022/04/13 01:33:59;;;;;;;3.63;2.88;;;9.30;98.50;;;;;;5058899;28;20024;-73
2022/04/13 01:36:25;;;;;;;4.78;3.20;;;9.10;99.60;;;;;;5060004;28;20112;-73
2022/04/13 01:38:51;;;;;;;4.20;3.17;;;9.10;99.30;;;;;;5059744;28;20020;-72
2022/04/13 01:41:17;;;;;;;5.68;3.20;;;9.00;99.90;;;;;;5058623;28;20108;-72
2022/04/13 01:43:42;;;;;;;4.50;2.97;;;9.00;99.90;;;;;;5051560;28;20104;-72
2022/04/13 01:46:08;;;;;;;4.90;2.78;;;9.10;99.90;;;;;;5051272;28;20028;-72
2022/04/13 01:48:33;;;;;;;3.75;2.85;;;9.00;99.90;;;;;;5050123;28;20141;-72
2022/04/13 01:50:59;;;;;;;4.75;2.75;;;9.00;99.90;;;;;;5051167;28;20040;-72
2022/04/13 01:53:25;;;;;;;4.65;3.13;;;9.00;99.90;;;;;;5051460;28;20028;-73
2022/04/13 01:55:53;;;;;;;4.32;2.90;;;9.00;99.90;;;;;;5048815;28;20025;-73
2022/04/13 01:58:22;;;;;;;4.28;3.17;;;8.90;99.90;;;;;;5050716;28;20381;-72
2022/04/13 02:00:51;;;;;;;3.45;3.13;;;9.00;99.90;;;;;;5058049;28;20025;-72
2022/04/13 02:03:18;;;;;;;5.65;2.85;;;8.80;99.90;;;;;;5055569;28;20450;-72
2022/04/13 02:05:43;;;;;;;5.75;2.78;;;8.90;99.90;;;;;;5055333;28;20390;-72
2022/04/13 02:08:09;;;;;;;4.75;3.40;;;9.00;99.90;;;;;;5055588;28;20040;-72
2022/04/13 02:10:34;;;;;;;4.28;3.30;;;9.00;99.90;;;;;;5055093;28;20037;-72
2022/04/13 02:13:00;;;;;;;3.60;3.15;;;8.80;99.90;;;;;;5055874;28;20516;-72
2022/04/13 02:15:26;;;;;;;4.30;3.17;;;8.60;99.90;;;;;;5065004;28;20033;-73
2022/04/13 02:17:51;;;;;;;4.13;3.30;;;8.60;99.90;;;;;;5051183;28;20025;-73
2022/04/13 02:20:17;;;;;;;4.20;3.00;;;8.40;99.90;;;;;;5060158;28;20024;-71
2022/04/13 02:22:45;;;;;;;5.10;3.30;;;8.40;99.90;;;;;;5066808;28;20417;-71
2022/04/13 02:25:10;;;;;;;5.40;3.50;;;8.40;99.90;;;;;;5056868;28;20070;-71
2022/04/13 02:27:36;;;;;;;5.78;3.20;;;8.20;99.90;;;;;;5055079;28;20099;-71
2022/04/13 02:30:02;;;;;;;5.30;3.55;;;8.30;99.90;;;;;;5053247;28;20037;-71
2022/04/13 02:32:28;;;;;;;4.22;3.13;;;8.10;99.90;;;;;;5066364;28;20029;-71
2022/04/13 02:34:53;;;;;;;5.47;3.20;;;8.10;99.90;;;;;;5056862;28;20029;-71
2022/04/13 02:37:19;;;;;;;5.05;3.50;;;8.10;99.90;;;;;;5053841;28;20512;-71
2022/04/13 02:39:44;;;;;;;4.95;3.40;;;8.20;99.90;;;;;;5054760;28;20027;-71
2022/04/13 02:42:14;;;;;;;4.15;3.08;;;8.30;99.90;;;;;;5054430;28;20397;-71
2022/04/13 02:44:43;;;;;;;6.40;4.30;;;8.40;99.90;;;;;;5054564;28;20033;-71
2022/04/13 02:47:09;;;;;;;4.20;3.38;;;8.40;99.90;;;;;;5054638;28;20418;-70
2022/04/13 02:49:35;;;;;;;6.28;3.78;;;8.40;99.90;;;;;;5054415;28;20029;-70
2022/04/13 02:52:01;;;;;;;5.70;3.72;;;8.50;99.90;;;;;;5054354;28;20070;-70
2022/04/13 02:54:26;;;;;;;8.23;4.05;;;8.40;99.90;;;;;;5053108;28;20025;-71
2022/04/13 02:56:52;;;;;;;6.95;3.65;;;8.30;99.90;;;;;;5054219;28;20032;-71
2022/04/13 02:59:17;;;;;;;4.68;3.35;;;8.20;99.90;;;;;;5054296;28;20467;-71
2022/04/13 03:01:46;;;;;;;7.70;3.70;;;8.10;99.90;;;;;;5054105;28;20017;-70
2022/04/13 03:04:13;;;;;;;4.82;3.63;;;8.20;99.90;;;;;;5054179;28;20025;-73
2022/04/13 03:06:39;;;;;;;5.72;3.72;;;8.00;99.90;;;;;;5054225;28;20155;-72
2022/04/13 03:09:05;;;;;;;4.03;3.58;;;8.00;99.90;;;;;;5054231;28;20108;-71
2022/04/13 03:11:30;;;;;;;5.15;3.72;;;7.90;99.90;;;;;;5052678;28;20029;-72
2022/04/13 03:13:56;;;;;;;4.47;3.47;;;7.90;99.90;;;;;;5070593;28;20414;-70
2022/04/13 03:16:22;;;;;;;5.95;3.90;;;7.90;99.90;;;;;;5054632;28;20517;-73
2022/04/13 03:18:47;;;;;;;5.25;3.60;;;8.00;99.90;;;;;;5052790;28;20043;-72
2022/04/13 03:21:13;;;;;;;5.20;4.55;;;7.90;99.90;;;;;;5053800;28;20028;-72
2022/04/13 03:23:38;;;;;;;4.32;3.60;;;7.70;99.90;;;;;;5053941;28;20506;-71
2022/04/13 03:26:04;;;;;;;6.00;4.00;;;7.80;99.90;;;;;;5053818;28;20471;-71
2022/04/13 03:28:29;;;;;;;5.47;3.85;;;7.80;99.90;;;;;;5053922;28;20048;-72
2022/04/13 03:30:55;;;;;;;6.60;3.92;;;7.80;99.90;;;;;;5053662;28;20029;-71
2022/04/13 03:33:21;;;;;;;5.90;4.70;;;7.90;99.90;;;;;;5053784;28;20066;-73
2022/04/13 03:35:46;;;;;;;5.43;3.92;;;8.10;99.90;;;;;;5053808;28;20040;-73
2022/04/13 03:38:11;;;;;;;6.38;4.75;;;8.10;99.90;;;;;;5053601;28;20026;-72
2022/04/13 03:40:37;;;;;;;6.72;4.43;;;7.90;99.90;;;;;;5053749;28;20029;-73
2022/04/13 03:43:02;;;;;;;6.05;4.30;;;7.70;99.90;;;;;;5053489;28;20451;-73
2022/04/13 03:45:28;;;;;;;7.43;4.30;;;7.80;99.90;;;;;;5053583;28;20029;-72
2022/04/13 03:47:53;;;;;;;5.38;3.72;;;7.80;99.90;;;;;;5053398;28;20048;-72
2022/04/13 03:50:19;;;;;;;5.93;4.32;;;7.70;99.90;;;;;;5051993;28;20028;-71
2022/04/13 03:52:44;;;;;;;5.97;4.40;;;7.60;99.90;;;;;;5053388;28;20494;-72
2022/04/13 03:55:11;;;;;;;6.75;4.38;;;7.40;99.90;;;;;;5053266;28;20017;-72
2022/04/13 03:57:37;;;;;;;6.05;4.55;;;7.40;99.90;;;;;;5053257;28;20395;-72
2022/04/13 04:00:07;;;;;;;6.10;3.88;;;7.30;99.90;;;;;;5053429;28;20036;-72
2022/04/13 04:02:37;;;;;;;6.80;4.60;;;7.30;99.90;;;;;;5052988;28;20045;-72
2022/04/13 04:05:03;;;;;;;6.40;4.65;;;7.30;99.90;;;;;;5052278;28;20392;-72
2022/04/13 04:07:28;;;;;;;6.93;4.60;;;7.40;99.90;;;;;;5052949;28;20017;-72
2022/04/13 04:09:54;;;;;;;7.80;4.15;;;7.20;99.90;;;;;;5053082;28;20025;-73
2022/04/13 04:12:20;;;;;;;5.07;4.35;;;7.20;99.90;;;;;;5044903;28;20469;-71
2022/04/13 04:14:45;;;;;;;5.15;4.50;;;6.90;99.90;;;;;;5051681;28;20021;-71
2022/04/13 04:17:11;;;;;;;9.02;4.15;;;7.00;99.90;;;;;;5053214;28;20441;-70
2022/04/13 04:19:36;;;;;;;5.55;4.75;;;7.40;99.90;;;;;;5053180;28;20390;-72
2022/04/13 04:22:02;;;;;;;5.70;4.35;;;7.60;99.90;;;;;;5052576;28;20063;-72
2022/04/13 04:24:28;;;;;;;6.35;4.70;;;7.30;99.90;;;;;;5052856;28;20132;-71
2022/04/13 04:26:53;;;;;;;7.53;4.60;;;7.30;99.90;;;;;;5052915;28;20059;-73
2022/04/13 04:29:19;;;;;;;9.90;4.70;;;7.30;99.90;;;;;;5052840;28;20036;-73
2022/04/13 04:31:50;;;;;;;5.85;4.30;;;7.50;99.90;;;;;;5052631;28;20029;-74
2022/04/13 04:34:22;;;;;;;5.72;4.10;;;7.60;99.90;;;;;;5052802;28;20017;-73
2022/04/13 04:36:48;;;;;;;4.95;4.30;;;7.60;99.90;;;;;;5039682;28;20029;-72
2022/04/13 04:39:13;;;;;;;6.45;4.45;;;7.70;99.90;;;;;;5052691;28;20024;-73
2022/04/13 04:41:42;;;;;;;8.07;4.25;;;7.70;99.90;;;;;;5052442;28;20363;-72
2022/04/13 04:44:09;;;;;;;8.60;4.50;;;7.80;99.90;;;;;;5051381;28;20060;-73
2022/04/13 04:46:35;;;;;;;8.60;4.38;;;7.80;99.90;;;;;;5052500;28;20021;-73
2022/04/13 04:49:01;;;;;;;6.53;4.53;;;7.60;99.90;;;;;;5052543;28;20074;-71
2022/04/13 04:51:27;;;;;;;5.88;4.28;;;7.40;99.90;;;;;;5052290;28;20051;-73
2022/04/13 04:53:52;;;;;;;8.00;4.78;;;7.20;99.90;;;;;;5052407;28;20487;-73
2022/04/13 04:56:18;;;;;;;7.15;4.82;;;7.00;99.90;;;;;;5050996;28;20036;-72
2022/04/13 04:58:43;;;;;;;7.88;4.47;;;7.00;99.90;;;;;;5051063;28;20530;-71
2022/04/13 05:01:09;;;;;;;8.30;4.55;;;7.00;99.90;;;;;;5052132;28;20096;-71
2022/04/13 05:03:34;;;;;;;8.15;4.75;;;7.00;99.90;;;;;;5052346;28;20033;-71
2022/04/13 05:06:00;;;;;;;9.52;5.00;;;7.10;99.90;;;;;;5052257;28;20033;-71
2022/04/13 05:08:26;;;;;;;6.72;4.80;;;7.00;99.90;;;;;;5052160;28;20082;-72
2022/04/13 05:10:51;;;;;;;8.35;5.20;;;6.90;99.90;;;;;;5050573;28;20078;-72
2022/04/13 05:13:17;;;;;;;5.93;4.30;;;7.00;99.90;;;;;;5051866;28;20048;-72
2022/04/13 05:15:43;;;;;;;6.50;4.60;;;7.00;99.90;;;;;;5050539;28;20043;-72
2022/04/13 05:18:09;;;;;;;8.88;4.63;;;7.10;99.90;;;;;;5051991;28;20096;-72
2022/04/13 05:20:34;;;;;;;8.38;4.95;;;7.20;99.90;;;;;;5051531;28;20071;-71
2022/04/13 05:23:00;;;;;;;6.85;5.60;;;7.30;99.90;;;;;;5049740;28;20037;-72
2022/04/13 05:25:25;;;;;;;6.72;4.50;;;7.40;99.90;;;;;;5055889;28;20033;-72
2022/04/13 05:27:50;;;;;;;6.18;4.72;;;7.40;99.90;;;;;;5055006;28;20025;-72
2022/04/13 05:30:16;;;;;;;7.75;5.03;;;7.40;99.90;;;;;;5058850;28;20390;-73
2022/04/13 05:32:56;;;;;;;5.75;4.75;;;7.40;99.90;;;;;;5058455;28;20037;-73
2022/04/13 05:35:22;;;;;;;7.45;4.95;;;7.50;99.90;;;;;;5049814;28;20032;-73
2022/04/13 05:37:47;;;;;;;7.25;4.95;;;7.70;99.90;;;;;;5051753;28;20021;-73
2022/04/13 05:40:13;;;;;;;8.65;4.85;;;7.80;99.90;;;;;;5051805;28;20032;-72
2022/04/13 05:42:38;;;;;;;9.30;5.72;;;8.00;99.90;;;;;;5051638;28;20040;-73
2022/04/13 05:45:05;;;;;;;7.32;5.55;;;8.20;99.90;;;;;;5050481;28;20082;-73
2022/04/13 05:47:30;;;;;;;5.93;4.45;;;8.30;99.90;;;;;;5051624;28;20032;-72
2022/04/13 05:49:56;;;;;;;5.47;4.32;;;8.40;99.90;;;;;;5051608;28;20632;-74
2022/04/13 05:52:21;;;;;;;7.32;4.85;;;8.50;99.90;;;;;;5051410;28;20386;-76
2022/04/13 05:54:47;;;;;;;7.10;5.10;;;8.60;99.90;;;;;;5050447;28;20364;-73
2022/04/13 05:57:12;;;;;;;5.43;4.60;;;8.80;99.90;;;;;;5051987;28;20032;-73
2022/04/13 05:59:38;;;;;;;8.07;4.90;;;8.90;99.90;;;;;;5051193;28;20061;-74
2022/04/13 06:02:04;;;;;;;6.53;4.70;;;9.00;99.90;;;;;;5050307;28;20497;-74
2022/04/13 06:04:30;;;;;;;7.30;5.18;;;9.10;99.90;;;;;;5050196;28;20036;-74
2022/04/13 06:06:56;;;;;;;8.25;7.25;;;9.20;99.90;;;;;;5051360;28;20043;-74
2022/04/13 06:09:22;;;;;;;10.55;7.32;;;9.30;99.90;;;;;;5050318;28;20032;-74
2022/04/13 06:11:51;;;;;;;7.35;4.90;;;9.30;99.90;;;;;;5051409;28;20021;-74
2022/04/13 06:14:17;;;;;;;5.43;4.70;;;9.40;99.90;;;;;;5050223;28;20490;-74
2022/04/13 06:16:43;;;;;;;7.13;4.63;;;9.40;99.90;;;;;;5051062;28;20025;-74
2022/04/13 06:19:09;;;;;;;8.05;5.13;;;9.30;99.90;;;;;;5051179;28;20100;-74
2022/04/13 06:21:34;;;;;;;8.93;5.10;;;9.40;99.90;;;;;;5051251;28;20112;-74
2022/04/13 06:24:00;;;;;;;5.95;5.10;;;9.40;99.90;;;;;;5051314;28;20037;-74
2022/04/13 06:26:25;;;;;;;7.60;5.40;;;9.40;99.90;;;;;;5051266;28;20051;-74
2022/04/13 06:28:52;;;;;;;8.18;5.47;;;9.40;99.90;;;;;;5050153;28;20029;-74
2022/04/13 06:31:18;;;;;;;11.15;6.35;;;9.40;99.90;;;;;;5056442;28;20025;-73
2022/04/13 06:33:43;;;;;;;10.65;6.28;;;9.50;99.90;;;;;;5058199;28;20079;-75
2022/04/13 06:36:09;;;;;;;9.55;6.28;;;9.40;99.90;;;;;;5050584;28;20553;-73
2022/04/13 06:38:35;;;;;;;8.77;6.20;;;9.50;99.90;;;;;;5051715;28;20024;-73
2022/04/13 06:41:01;;;;;;;9.60;5.72;;;9.50;99.90;;;;;;5050242;28;20032;-73
2022/04/13 06:43:26;;;;;;;8.25;6.53;;;9.40;99.90;;;;;;5051533;28;20505;-74
2022/04/13 06:45:53;;;;;;;8.25;5.55;;;9.50;99.90;;;;;;5053050;28;20037;-74
2022/04/13 06:48:19;;;;;;;8.10;5.85;;;9.50;99.90;;;;;;5055197;28;20116;-73
2022/04/13 06:50:45;;;;;;;9.10;5.22;;;9.60;99.90;;;;;;5054704;28;20429;-73
2022/04/13 06:53:10;;;;;;;9.05;4.95;;;9.60;99.90;;;;;;5054806;28;20112;-73
2022/04/13 06:55:39;;;;;;;7.95;5.15;;;9.70;99.90;;;;;;5054640;28;20513;-72
2022/04/13 06:58:04;;;;;;;8.25;5.72;;;9.90;99.90;;;;;;5054708;28;20109;-74
2022/04/13 07:00:30;;;;;;;8.18;5.05;;;9.90;99.90;;;;;;5053377;28;20439;-73
2022/04/13 07:02:57;;;;;;;8.45;5.45;;;10.00;99.90;;;;;;5054659;28;20108;-73
2022/04/13 07:05:24;;;;;;;5.90;4.97;;;10.10;99.90;;;;;;5054506;28;20390;-73
2022/04/13 07:07:49;;;;;;;7.53;5.82;;;10.20;99.90;;;;;;5054389;28;20032;-73
2022/04/13 07:10:14;;;;;;;10.95;5.25;;;10.30;99.90;;;;;;5052970;28;20021;-75
2022/04/13 07:12:40;;;;;;;9.75;5.50;;;10.40;99.90;;;;;;5053050;28;20033;-73
2022/04/13 07:15:06;;;;;;;8.35;5.88;;;10.50;99.90;;;;;;5052885;28;20041;-73
2022/04/13 07:17:31;;;;;;;12.63;5.78;;;10.70;99.90;;;;;;5054136;28;20375;-74
2022/04/13 07:19:57;;;;;;;8.00;5.47;;;10.80;99.90;;;;;;5054159;28;20029;-73
2022/04/13 07:22:23;;;;;;;7.10;5.30;;;10.90;99.90;;;;;;5052746;28;20022;-70
2022/04/13 07:24:49;;;;;;;8.50;6.03;;;11.00;99.90;;;;;;5052334;28;20029;-75
2022/04/13 07:27:15;;;;;;;9.90;5.82;;;11.20;99.90;;;;;;5065863;28;20052;-73
2022/04/13 07:29:40;;;;;;;8.75;5.90;;;11.30;99.90;;;;;;5058223;28;20150;-73
2022/04/13 07:32:06;;;;;;;8.48;5.88;;;11.40;99.90;;;;;;5056001;28;20079;-72
2022/04/13 07:34:32;;;;;;;10.70;5.25;;;11.50;99.90;;;;;;5052476;28;20029;-73
2022/04/13 07:36:58;;;;;;;8.13;4.97;;;11.60;99.90;;;;;;5053979;28;20029;-73
2022/04/13 07:39:24;;;;;;;10.05;5.88;;;11.60;99.90;;;;;;5053887;28;20025;-73
2022/04/13 07:41:49;;;;;;;9.60;5.50;;;11.60;99.90;;;;;;5053364;28;20482;-74
2022/04/13 07:44:15;;;;;;;8.35;5.45;;;11.60;99.90;;;;;;5052781;28;20035;-72
2022/04/13 07:46:40;;;;;;;8.65;5.90;;;11.80;99.90;;;;;;5051857;28;20029;-73
2022/04/13 07:49:06;;;;;;;8.73;5.93;;;11.90;99.90;;;;;;5052346;28;20032;-73
2022/04/13 07:51:33;;;;;;;8.38;5.82;;;11.90;99.90;;;;;;5053527;28;20040;-73
2022/04/13 07:54:01;;;;;;;9.30;5.50;;;12.00;99.90;;;;;;5053547;28;20021;-73
2022/04/13 07:56:27;;;;;;;8.77;5.60;;;12.20;99.90;;;;;;5053469;28;20379;-73
2022/04/13 07:58:53;;;;;;;9.18;5.75;;;12.40;99.90;;;;;;5052978;28;20025;-73
2022/04/13 08:01:18;;;;;;;9.27;5.53;;;12.40;99.90;;;;;;5052040;28;20025;-73
2022/04/13 08:03:43;;;;;;;9.57;5.30;;;12.40;99.90;;;;;;5053396;28;20422;-73
2022/04/13 08:06:11;;;;;;;8.13;5.03;;;12.50;99.90;;;;;;5045110;28;20064;-73
2022/04/13 08:08:37;;;;;;;11.05;5.38;;;12.60;99.90;;;;;;5048400;28;20078;-73
2022/04/13 08:11:03;;;;;;;11.40;5.60;;;12.70;99.90;;;;;;5053147;28;20536;-72
2022/04/13 08:13:28;;;;;;;8.05;5.90;;;12.60;99.90;;;;;;5053031;28;20036;-73
2022/04/13 08:15:54;;;;;;;9.32;6.43;;;12.80;99.90;;;;;;5053010;28;20509;-72
2022/04/13 08:18:19;;;;;;;13.02;6.93;;;12.80;99.90;;;;;;5051968;28;20017;-73
2022/04/13 08:20:45;;;;;;;9.38;5.70;;;12.90;99.90;;;;;;5052906;28;20025;-73
2022/04/13 08:23:11;;;;;;;10.65;5.88;;;13.00;99.90;;;;;;5053023;28;20068;-74
2022/04/13 08:25:36;;;;;;;10.98;6.20;;;13.20;99.90;;;;;;5052990;28;20033;-73
2022/04/13 08:28:02;;;;;;;9.10;5.72;;;13.20;99.90;;;;;;5052943;28;20040;-73
2022/04/13 08:30:28;;;;;;;11.45;5.93;;;13.20;99.90;;;;;;5052647;28;20167;-74
2022/04/13 08:32:53;;;;;;;11.07;6.18;;;13.30;99.90;;;;;;5051469;28;20021;-73
2022/04/13 08:35:19;;;;;;;8.73;5.65;;;13.30;99.90;;;;;;5052764;28;20524;-73
2022/04/13 08:37:44;;;;;;;8.05;5.53;;;13.40;99.90;;;;;;5052653;28;20021;-73
2022/04/13 08:40:11;;;;;;;8.00;5.40;;;13.50;99.90;;;;;;5052617;28;20024;-73
2022/04/13 08:42:47;;;;;;;11.25;5.35;;;13.70;99.90;;;;;;5052477;28;20032;-73
2022/04/13 08:45:18;;;;;;;9.18;6.13;;;13.90;99.90;;;;;;5052662;28;20021;-73
2022/04/13 08:47:46;;;;;;;10.02;5.32;;;13.90;99.90;;;;;;5052376;28;20387;-73
2022/04/13 08:50:12;;;;;;;8.32;5.40;;;13.90;99.90;;;;;;5052267;28;20033;-73
2022/04/13 08:52:39;;;;;;;11.15;5.50;;;14.00;99.90;;;;;;5052230;28;20025;-73
2022/04/13 08:55:11;;;;;;;8.65;5.57;;;14.20;99.90;;;;;;5052435;28;20072;-72
2022/04/13 08:57:38;;;;;;;8.70;5.72;;;14.20;99.90;;;;;;5052429;28;20045;-72
2022/04/13 09:00:08;;;;;;;9.07;5.35;;;14.30;99.90;;;;;;5051043;28;20108;-72
2022/04/13 09:03:09;;;;;;;8.98;5.45;;;14.50;99.90;;;;;;5052147;28;20025;-73
2022/04/13 09:05:36;;;;;;;8.02;5.50;;;14.60;99.90;;;;;;5050691;28;20021;-73
2022/04/13 09:08:22;;;;;;;9.45;5.00;;;14.70;99.90;;;;;;5050917;28;20028;-73
2022/04/13 09:10:51;;;;;;;6.73;4.67;;;14.90;99.90;;;;;;5051579;28;20021;-74
2022/04/13 09:13:18;;;;;;;8.70;5.18;;;15.00;99.90;;;;;;5045724;28;20032;-73
2022/04/13 09:15:44;;;;;;;9.20;4.60;;;15.10;99.90;;;;;;5051952;28;20112;-73
2022/04/13 09:18:11;;;;;;;7.80;5.25;;;15.20;99.90;;;;;;5051257;28;20119;-73
2022/04/13 09:20:37;;;;;;;8.90;5.00;;;15.30;99.90;;;;;;5050465;28;20548;-73
2022/04/13 09:23:04;;;;;;;6.95;5.00;;;15.40;99.90;;;;;;5050481;28;20223;-73
2022/04/13 09:25:31;;;;;;;8.10;4.88;;;15.60;99.90;;;;;;5051843;28;20033;-73
2022/04/13 09:27:58;;;;;;;6.97;4.53;;;15.70;99.90;;;;;;5051795;28;20052;-73
2022/04/13 09:30:25;;;;;;;8.10;4.97;;;15.70;99.90;;;;;;5051645;28;20025;-73
2022/04/13 09:32:50;;;;;;;8.73;4.45;;;15.60;99.90;;;;;;5050293;28;20110;-73
2022/04/13 09:35:17;;;;;;;9.07;5.13;;;15.70;99.90;;;;;;5051925;28;20652;-73
2022/04/13 09:37:44;;;;;;;7.90;5.07;;;15.90;99.90;;;;;;5050311;28;20021;-73
2022/04/13 09:40:10;;;;;;;7.35;4.18;;;16.00;99.90;;;;;;5050239;28;20033;-73
2022/04/13 09:42:36;;;;;;;8.15;4.45;;;16.30;99.90;;;;;;5051087;28;20100;-73
2022/04/13 09:45:03;;;;;;;6.78;4.40;;;16.30;99.90;;;;;;5051533;28;20021;-73
2022/04/13 09:47:33;;;;;;;8.68;4.63;;;16.50;99.90;;;;;;5051489;28;20078;-73
2022/04/13 09:50:00;;;;;;;7.97;4.75;;;16.40;99.90;;;;;;5043448;28;20359;-73
2022/04/13 09:52:26;;;;;;;9.50;4.70;;;16.60;99.90;;;;;;5059329;28;20521;-71
2022/04/13 09:54:52;;;;;;;7.00;4.32;;;16.90;99.90;;;;;;5051956;28;20070;-72
2022/04/13 09:57:25;;;;;;;7.82;4.30;;;16.90;99.90;;;;;;5067569;28;20107;-75
2022/04/13 09:59:59;;;;;;;7.13;4.93;;;17.10;99.90;;;;;;5051574;28;20029;-73
2022/04/13 10:02:37;;;;;;;7.90;4.25;;;17.30;99.90;;;;;;5050743;28;20029;-73
2022/04/13 10:05:05;;;;;;;10.02;4.28;;;17.40;99.80;;;;;;5066359;28;20502;-74
2022/04/13 10:07:31;;;;;;;8.45;4.65;;;17.40;99.90;;;;;;5057345;28;20024;-73
2022/04/13 10:09:56;;;;;;;5.90;4.55;;;17.30;98.90;;;;;;5060954;28;20025;-73
2022/04/13 10:12:22;;;;;;;8.32;4.75;;;17.40;99.90;;;;;;5062863;28;20059;-73
2022/04/13 10:14:47;;;;;;;7.53;4.50;;;17.40;99.90;;;;;;5058659;28;20021;-73
2022/04/13 10:17:15;;;;;;;6.65;4.53;;;17.20;99.30;;;;;;5051457;28;20040;-73
2022/04/13 10:19:42;;;;;;;7.10;4.40;;;17.30;99.20;;;;;;5051301;28;20382;-73
2022/04/13 10:22:08;;;;;;;8.57;4.75;;;17.20;98.90;;;;;;5054593;28;20102;-73
2022/04/13 10:24:37;;;;;;;7.55;4.20;;;17.50;99.30;;;;;;5055400;28;20032;-74
2022/04/13 10:27:04;;;;;;;7.80;4.47;;;17.60;98.50;;;;;;5053947;28;20067;-73
2022/04/13 10:29:35;;;;;;;8.77;4.18;;;17.80;97.70;;;;;;5055287;28;20021;-73
2022/04/13 10:32:05;;;;;;;7.38;4.05;;;17.90;99.20;;;;;;5054987;28;20116;-73
2022/04/13 10:34:35;;;;;;;5.75;4.03;;;18.00;97.70;;;;;;5055103;28;20502;-73
2022/04/13 10:37:02;;;;;;;5.38;4.05;;;18.30;99.40;;;;;;5053695;28;20029;-73
2022/04/13 10:39:28;;;;;;;6.45;4.18;;;18.70;99.90;;;;;;5057210;28;20031;-73
2022/04/13 10:41:54;;;;;;;5.57;4.15;;;18.70;99.20;;;;;;5063587;28;20443;-73
2022/04/13 10:44:34;;;;;;;8.30;4.30;;;18.50;98.50;;;;;;5054936;28;20064;-73
2022/04/13 10:47:05;;;;;;;8.55;4.05;;;18.60;98.10;;;;;;5053595;28;20028;-70
2022/04/13 10:49:59;;;;;;;5.05;3.80;;;18.60;99.40;;;;;;5054746;28;20048;-75
2022/04/13 10:52:32;;;;;;;5.93;3.70;;;18.70;97.80;;;;;;5053904;28;20125;-73
2022/04/13 10:55:05;;;;;;;7.20;4.28;;;18.80;96.80;;;;;;5046638;28;20021;-73
2022/04/13 10:57:41;;;;;;;6.57;4.15;;;18.90;97.30;;;;;;5064539;28;20025;-73
2022/04/13 11:00:10;;;;;;;6.13;4.13;;;19.00;96.80;;;;;;5060557;28;20436;-73
2022/04/13 11:02:49;;;;;;;7.13;3.55;;;19.00;97.10;;;;;;5059682;28;20028;-73
2022/04/13 11:05:16;;;;;;;6.15;3.90;;;19.50;97.10;;;;;;5060104;28;20028;-73
2022/04/13 11:07:41;;;;;;;5.88;4.00;;;19.40;96.60;;;;;;5054271;28;20548;-73
2022/04/13 11:10:16;;;;;;;8.00;4.35;;;19.40;95.80;;;;;;5054460;28;20024;-72
2022/04/13 11:12:42;;;;;;;7.70;3.88;;;19.30;95.50;;;;;;5054390;28;20067;-72
2022/04/13 11:15:08;;;;;;;7.43;3.40;;;19.60;96.10;;;;;;5054235;28;20037;-73
2022/04/13 11:17:40;;;;;;;13.15;3.85;;;19.70;96.10;;;;;;5054405;28;20021;-73
2022/04/13 11:20:26;;;;;;;5.00;3.60;;;19.80;95.30;;;;;;5053026;28;20075;-73
2022/04/13 11:23:15;;;;;;;5.05;2.83;;;19.80;96.70;;;;;;5054346;28;20014;-73
2022/04/13 11:25:48;;;;;;;6.40;3.08;;;19.90;93.80;;;;;;5032714;28;20056;-73
2022/04/13 11:28:28;;;;;;;3.60;3.10;;;19.90;95.30;;;;;;5051093;28;20666;-73
2022/04/13 11:31:08;;;;;;;5.60;3.10;;;20.20;93.70;;;;;;5052957;28;20064;-73
2022/04/13 11:33:40;;;;;;;6.63;3.60;;;20.40;94.00;;;;;;5040460;28;20104;-72
2022/04/13 11:36:06;;;;;;;7.93;3.42;;;20.30;94.80;;;;;;5052629;28;20032;-72
2022/04/13 11:38:36;;;;;;;5.45;3.63;;;20.30;93.90;;;;;;5053976;28;20013;-73
2022/04/13 11:41:07;;;;;;;5.05;2.85;;;20.40;94.00;;;;;;5053677;28;20020;-73
2022/04/13 11:43:34;;;;;;;6.40;3.40;;;20.50;93.50;;;;;;5052571;28;20043;-73
2022/04/13 11:46:00;;;;;;;6.13;3.22;;;20.80;95.20;;;;;;5053506;28;20029;-73
2022/04/13 11:48:35;;;;;;;5.65;3.40;;;20.80;93.90;;;;;;5052314;28;20436;-73
2022/04/13 11:51:37;;;;;;;7.40;3.75;;;21.10;93.80;;;;;;5053499;28;20521;-74
2022/04/13 11:54:08;;;;;;;5.45;3.55;;;21.30;95.20;;;;;;5020782;28;20121;-74
2022/04/13 11:56:39;;;;;;;4.18;3.42;;;21.30;94.00;;;;;;5057507;28;20036;-73
2022/04/13 11:59:06;;;;;;;6.47;3.15;;;21.10;94.30;;;;;;5053544;28;20029;-73
2022/04/13 12:01:33;;;;;;;4.78;3.10;;;21.30;92.70;;;;;;5049353;28;20545;-74
2022/04/13 12:04:03;;;;;;;4.32;3.15;;;21.20;92.50;;;;;;5056651;28;20475;-73
2022/04/13 12:06:29;;;;;;;4.95;3.35;;;21.60;92.40;;;;;;5058395;28;20095;-74
2022/04/13 12:08:57;;;;;;;7.75;3.38;;;22.00;92.30;;;;;;5062022;28;20028;-73
2022/04/13 12:11:36;;;;;;;4.82;2.95;;;21.90;93.20;;;;;;5055722;28;20135;-73
2022/04/13 12:14:02;;;;;;;5.35;3.35;;;21.80;91.20;;;;;;5051919;28;20386;-73
2022/04/13 12:16:30;;;;;;;4.13;2.90;;;22.00;91.40;;;;;;5051686;28;20086;-74
2022/04/13 12:19:04;;;;;;;3.75;2.60;;;22.10;92.90;;;;;;5053252;28;20474;-74
2022/04/13 12:21:31;;;;;;;4.03;2.42;;;22.30;91.00;;;;;;5052873;28;20104;-74
2022/04/13 12:24:00;;;;;;;4.47;2.60;;;22.30;88.10;;;;;;5053091;28;20057;-74
2022/04/13 12:26:30;;;;;;;5.00;2.85;;;22.50;90.30;;;;;;5052887;28;20036;-74
2022/04/13 12:28:56;;;;;;;3.80;2.92;;;22.50;90.60;;;;;;5052997;28;20385;-74
2022/04/13 12:31:22;;;;;;;4.00;2.53;;;22.60;88.20;;;;;;5051404;28;20021;-74
2022/04/13 12:33:47;;;;;;;3.60;2.67;;;23.10;90.00;;;;;;5052744;28;20071;-74
2022/04/13 12:36:16;;;;;;;3.60;2.45;;;23.20;89.60;;;;;;5051801;28;20028;-73
2022/04/13 12:38:57;;;;;;;5.22;2.85;;;23.60;88.10;;;;;;5059638;28;20521;-73
2022/04/13 12:41:24;;;;;;;5.30;2.63;;;23.50;85.30;;;;;;5053666;28;20040;-74
2022/04/13 12:43:59;;;;;;;3.90;2.60;;;24.00;80.50;;;;;;5059560;28;20051;-74
2022/04/13 12:46:30;;;;;;;5.88;2.88;;;24.50;81.30;;;;;;5052774;28;20025;-74
2022/04/13 12:48:58;;;;;;;5.20;2.42;;;24.50;80.10;;;;;;5065122;28;20051;-73
2022/04/13 12:51:28;;;;;;;6.68;2.13;;;24.50;78.10;;;;;;5037831;28;20025;-74